Time;durP1;ratioP1;P1;durP2;ratioP2;P2;SDS_P1;SDS_P2;PMS_P1;PMS_P2;Temp;Humidity;BMP_temperature;BMP_pressure;BME280_temperature;BME280_humidity;BME280_pressure;Samples;Min_cycle;Max_cycle;Signal;HPM_P1;HPM_P2
2022/09/30 00:02:19;;;;;;;7.53;6.80;;;;;;;;;;10461605;28;20228;-82
2022/09/30 00:07:24;;;;;;;7.90;6.70;;;;;;;;;;10458747;28;20189;-82
2022/09/30 00:12:27;;;;;;;6.63;5.63;;;;;;;;;;10459819;28;20213;-81
2022/09/30 00:17:58;;;;;;;7.07;6.47;;;;;;;;;;10474925;28;20205;-82
2022/09/30 00:23:27;;;;;;;6.57;5.97;;;;;;;;;;10459177;28;20227;-81
2022/09/30 00:28:31;;;;;;;6.53;6.03;;;;;;;;;;10464135;28;20200;-81
2022/09/30 00:33:34;;;;;;;7.33;6.77;;;;;;;;;;10449177;28;20569;-81
2022/09/30 00:38:36;;;;;;;7.83;7.07;;;;;;;;;;10472184;28;20564;-82
2022/09/30 00:43:41;;;;;;;9.47;6.23;;;;;;;;;;10471903;28;20240;-82
2022/09/30 00:48:44;;;;;;;7.07;6.43;;;;;;;;;;10470992;28;20193;-81
2022/09/30 00:53:49;;;;;;;7.33;6.73;;;;;;;;;;10468489;28;20237;-81
2022/09/30 00:58:55;;;;;;;7.73;7.03;;;;;;;;;;10468616;28;20213;-81
2022/09/30 01:04:00;;;;;;;7.90;7.20;;;;;;;;;;10462206;28;20216;-81
2022/09/30 01:09:02;;;;;;;28.30;14.10;;;;;;;;;;10466269;28;20645;-81
2022/09/30 01:14:08;;;;;;;7.87;7.17;;;;;;;;;;10459361;28;20222;-81
2022/09/30 01:19:25;;;;;;;7.43;6.90;;;;;;;;;;10456027;28;20585;-82
2022/09/30 01:24:43;;;;;;;7.40;6.80;;;;;;;;;;10440699;28;20289;-83
2022/09/30 01:30:00;;;;;;;7.73;7.13;;;;;;;;;;10429899;28;20196;-81
2022/09/30 01:35:07;;;;;;;8.27;7.37;;;;;;;;;;10466194;28;20236;-82
2022/09/30 01:40:21;;;;;;;8.13;7.30;;;;;;;;;;10463856;28;20284;-81
2022/09/30 01:45:28;;;;;;;8.87;8.07;;;;;;;;;;10468806;28;20726;-81
2022/09/30 01:50:36;;;;;;;9.80;9.00;;;;;;;;;;10470697;28;20193;-81
2022/09/30 01:55:41;;;;;;;7.73;7.03;;;;;;;;;;10470888;28;20588;-81
2022/09/30 02:00:48;;;;;;;9.37;8.57;;;;;;;;;;10451754;28;20296;-81
2022/09/30 02:05:56;;;;;;;8.53;7.83;;;;;;;;;;10465189;28;20209;-81
2022/09/30 02:11:00;;;;;;;9.50;8.60;;;;;;;;;;10450104;28;20216;-81
2022/09/30 02:16:11;;;;;;;9.20;8.30;;;;;;;;;;10449629;28;20212;-81
2022/09/30 02:21:16;;;;;;;10.50;9.60;;;;;;;;;;10469431;28;20201;-81
2022/09/30 02:26:20;;;;;;;11.40;10.30;;;;;;;;;;10453294;28;20657;-82
2022/09/30 02:31:24;;;;;;;12.33;10.40;;;;;;;;;;10467540;28;20206;-82
2022/09/30 02:36:30;;;;;;;9.90;9.10;;;;;;;;;;10472785;28;20213;-81
2022/09/30 02:41:36;;;;;;;10.43;8.50;;;;;;;;;;10468359;28;20193;-81
2022/09/30 02:46:43;;;;;;;9.43;8.57;;;;;;;;;;10449450;28;20288;-82
2022/09/30 02:51:54;;;;;;;9.73;8.93;;;;;;;;;;10474072;28;20243;-82
2022/09/30 02:56:59;;;;;;;8.67;7.97;;;;;;;;;;10472242;28;20281;-82
2022/09/30 03:02:02;;;;;;;9.73;8.80;;;;;;;;;;10451150;28;20220;-82
2022/09/30 03:07:05;;;;;;;9.80;8.77;;;;;;;;;;10449847;28;20223;-82
2022/09/30 03:12:12;;;;;;;10.30;9.30;;;;;;;;;;10465403;28;20580;-81
2022/09/30 03:17:20;;;;;;;9.30;8.60;;;;;;;;;;10451706;28;20216;-81
2022/09/30 03:22:43;;;;;;;10.57;9.60;;;;;;;;;;10468803;28;20210;-81
2022/09/30 03:27:50;;;;;;;11.30;10.37;;;;;;;;;;10467311;28;20727;-82
2022/09/30 03:33:06;;;;;;;11.13;10.23;;;;;;;;;;10448566;28;20289;-81
2022/09/30 03:38:14;;;;;;;10.60;9.60;;;;;;;;;;10465805;28;20209;-81
2022/09/30 03:43:20;;;;;;;11.40;10.30;;;;;;;;;;10475054;28;20213;-81
2022/09/30 03:48:25;;;;;;;10.60;9.73;;;;;;;;;;10481739;28;20181;-82
2022/09/30 03:53:28;;;;;;;10.70;9.77;;;;;;;;;;10465130;28;20228;-81
2022/09/30 03:58:31;;;;;;;10.13;9.43;;;;;;;;;;10476734;28;20240;-81
2022/09/30 04:03:34;;;;;;;10.33;9.53;;;;;;;;;;10481485;28;20213;-82
2022/09/30 04:08:38;;;;;;;11.80;10.33;;;;;;;;;;10462997;28;20201;-81
2022/09/30 04:13:40;;;;;;;11.20;10.20;;;;;;;;;;10480374;28;20221;-82
2022/09/30 04:18:43;;;;;;;11.10;9.97;;;;;;;;;;10480444;28;20295;-82
2022/09/30 04:23:46;;;;;;;11.70;10.83;;;;;;;;;;10481672;28;20209;-82
2022/09/30 04:28:51;;;;;;;11.90;10.77;;;;;;;;;;10464762;28;20227;-82
2022/09/30 04:33:55;;;;;;;11.53;10.03;;;;;;;;;;10482075;28;20217;-82
2022/09/30 04:38:59;;;;;;;11.13;10.23;;;;;;;;;;10463297;28;20221;-82
2022/09/30 04:44:05;;;;;;;12.20;11.30;;;;;;;;;;10480621;28;20236;-81
2022/09/30 04:49:07;;;;;;;12.90;11.57;;;;;;;;;;10454428;28;20596;-81
2022/09/30 04:54:11;;;;;;;12.63;11.53;;;;;;;;;;10468676;28;20225;-81
2022/09/30 04:59:13;;;;;;;13.77;10.87;;;;;;;;;;10456754;28;20217;-81
2022/09/30 05:04:16;;;;;;;12.77;11.30;;;;;;;;;;10470721;28;20740;-81
2022/09/30 05:09:20;;;;;;;20.67;17.80;;;;;;;;;;10473239;28;20298;-81
2022/09/30 05:14:22;;;;;;;15.70;14.30;;;;;;;;;;10465617;28;20233;-81
2022/09/30 05:19:25;;;;;;;14.63;13.23;;;;;;;;;;10466557;28;20271;-81
2022/09/30 05:24:29;;;;;;;15.00;13.60;;;;;;;;;;10450113;28;20281;-81
2022/09/30 05:29:32;;;;;;;12.33;11.20;;;;;;;;;;10470543;28;20182;-82
2022/09/30 05:34:34;;;;;;;11.80;10.77;;;;;;;;;;10470175;28;20216;-82
2022/09/30 05:39:38;;;;;;;13.57;10.57;;;;;;;;;;10468685;28;20278;-81
2022/09/30 05:44:40;;;;;;;12.60;11.40;;;;;;;;;;10450257;28;20216;-83
2022/09/30 05:49:44;;;;;;;14.10;12.80;;;;;;;;;;10444258;28;20194;-81
2022/09/30 05:54:48;;;;;;;15.27;13.97;;;;;;;;;;10467770;23;20263;-78
2022/09/30 05:59:50;;;;;;;15.53;13.90;;;;;;;;;;10434306;28;20225;-77
2022/09/30 06:04:53;;;;;;;15.50;13.90;;;;;;;;;;10453216;28;20217;-78
2022/09/30 06:09:57;;;;;;;16.10;14.60;;;;;;;;;;10452176;28;20248;-80
2022/09/30 06:14:59;;;;;;;18.23;13.70;;;;;;;;;;10452200;28;20619;-78
2022/09/30 06:20:03;;;;;;;15.73;14.23;;;;;;;;;;10434164;28;20232;-78
2022/09/30 06:25:07;;;;;;;27.40;21.47;;;;;;;;;;10451720;28;20213;-77
2022/09/30 06:30:11;;;;;;;48.13;32.43;;;;;;;;;;10451475;28;20185;-77
2022/09/30 06:35:13;;;;;;;19.53;17.33;;;;;;;;;;10451842;28;20236;-77
2022/09/30 06:40:17;;;;;;;17.70;16.07;;;;;;;;;;10452330;28;20217;-79
2022/09/30 06:45:21;;;;;;;15.70;14.30;;;;;;;;;;10451642;28;20719;-77
2022/09/30 06:50:23;;;;;;;17.33;15.63;;;;;;;;;;10432717;28;20200;-79
2022/09/30 06:55:27;;;;;;;16.30;14.83;;;;;;;;;;10432903;28;20605;-82
2022/09/30 07:00:29;;;;;;;17.50;16.00;;;;;;;;;;10451669;28;20217;-79
2022/09/30 07:05:32;;;;;;;19.00;16.93;;;;;;;;;;10433104;28;20300;-80
2022/09/30 07:10:37;;;;;;;16.53;14.80;;;;;;;;;;10459772;28;20590;-79
2022/09/30 07:15:39;;;;;;;16.33;14.70;;;;;;;;;;10461383;28;20224;-79
2022/09/30 07:20:42;;;;;;;18.80;16.13;;;;;;;;;;10448888;28;20282;-80
2022/09/30 07:25:55;;;;;;;26.33;17.97;;;;;;;;;;10455384;28;20217;-79
2022/09/30 07:30:58;;;;;;;20.27;16.57;;;;;;;;;;10478174;28;20284;-79
2022/09/30 07:36:02;;;;;;;21.33;16.83;;;;;;;;;;10464876;28;20529;-80
2022/09/30 07:41:07;;;;;;;19.57;17.60;;;;;;;;;;10446975;28;20200;-79
2022/09/30 07:46:10;;;;;;;16.77;15.47;;;;;;;;;;10464712;28;20659;-80
2022/09/30 07:51:14;;;;;;;16.00;14.53;;;;;;;;;;10469456;28;20196;-79
2022/09/30 07:56:18;;;;;;;16.87;15.20;;;;;;;;;;10459079;28;20221;-79
2022/09/30 08:01:20;;;;;;;18.20;16.50;;;;;;;;;;10439960;28;20621;-78
2022/09/30 08:06:24;;;;;;;17.90;16.10;;;;;;;;;;10437953;28;20335;-78
2022/09/30 08:11:28;;;;;;;18.60;16.87;;;;;;;;;;10457883;28;20289;-78
2022/09/30 08:16:30;;;;;;;16.53;15.03;;;;;;;;;;10463278;28;20266;-77
2022/09/30 08:21:33;;;;;;;16.67;15.23;;;;;;;;;;10434619;28;20288;-79
2022/09/30 08:26:36;;;;;;;22.40;20.13;;;;;;;;;;10436401;28;20324;-79
2022/09/30 08:31:39;;;;;;;18.50;17.00;;;;;;;;;;10441574;28;20587;-77
2022/09/30 08:36:41;;;;;;;17.83;16.30;;;;;;;;;;10454089;28;20632;-78
2022/09/30 08:41:56;;;;;;;18.57;16.67;;;;;;;;;;10437052;28;20201;-79
2022/09/30 08:47:03;;;;;;;19.40;17.90;;;;;;;;;;10436733;28;20190;-78
2022/09/30 08:52:11;;;;;;;18.47;16.93;;;;;;;;;;10437057;28;20217;-79
2022/09/30 08:57:15;;;;;;;18.37;16.77;;;;;;;;;;10453902;28;20229;-77
2022/09/30 09:02:20;;;;;;;20.00;18.30;;;;;;;;;;10466022;28;20247;-79
2022/09/30 09:07:28;;;;;;;20.70;18.90;;;;;;;;;;10453841;28;20197;-79
2022/09/30 09:12:37;;;;;;;20.43;18.53;;;;;;;;;;10453065;28;20338;-78
2022/09/30 09:17:51;;;;;;;20.23;18.53;;;;;;;;;;10451263;28;20338;-78
2022/09/30 09:22:53;;;;;;;20.13;18.37;;;;;;;;;;10434936;28;20221;-78
2022/09/30 09:28:00;;;;;;;19.70;17.93;;;;;;;;;;10434275;28;20618;-78
2022/09/30 09:33:11;;;;;;;18.70;17.00;;;;;;;;;;10452029;28;20221;-78
2022/09/30 09:38:25;;;;;;;17.83;16.03;;;;;;;;;;10458883;28;20205;-79
2022/09/30 09:43:35;;;;;;;17.70;15.90;;;;;;;;;;10443887;28;20220;-79
2022/09/30 09:48:38;;;;;;;19.97;17.50;;;;;;;;;;10470245;28;20224;-79
2022/09/30 09:53:51;;;;;;;18.93;16.97;;;;;;;;;;10468584;28;20225;-79
2022/09/30 09:59:15;;;;;;;17.30;15.67;;;;;;;;;;10451209;28;20296;-79
2022/09/30 10:04:20;;;;;;;20.53;18.50;;;;;;;;;;10429757;28;20299;-78
2022/09/30 10:09:27;;;;;;;18.37;16.73;;;;;;;;;;10439587;28;20644;-78
2022/09/30 10:14:32;;;;;;;15.80;14.40;;;;;;;;;;10470961;28;20709;-80
2022/09/30 10:19:35;;;;;;;16.43;15.00;;;;;;;;;;10469514;28;20206;-79
2022/09/30 10:24:39;;;;;;;15.50;14.00;;;;;;;;;;10465609;28;20236;-77
2022/09/30 10:29:48;;;;;;;15.40;14.00;;;;;;;;;;10485683;28;20203;-78
2022/09/30 10:34:59;;;;;;;12.57;11.47;;;;;;;;;;10451141;28;20889;-78
2022/09/30 10:40:07;;;;;;;10.57;9.33;;;;;;;;;;10450609;28;20205;-78
2022/09/30 10:45:21;;;;;;;8.33;7.57;;;;;;;;;;10449094;28;20241;-77
2022/09/30 10:50:26;;;;;;;5.13;4.83;;;;;;;;;;10444556;28;20192;-78
2022/09/30 10:55:38;;;;;;;6.47;5.97;;;;;;;;;;10451041;28;20231;-79
2022/09/30 11:00:42;;;;;;;7.27;6.67;;;;;;;;;;10435583;28;20228;-78
2022/09/30 11:05:52;;;;;;;7.47;6.87;;;;;;;;;;10438645;28;20227;-77
2022/09/30 11:11:02;;;;;;;7.83;7.23;;;;;;;;;;10440538;28;20391;-77
2022/09/30 11:16:10;;;;;;;6.37;5.77;;;;;;;;;;10467423;28;20838;-79
2022/09/30 11:21:16;;;;;;;7.80;7.30;;;;;;;;;;10446319;28;20288;-77
2022/09/30 11:26:27;;;;;;;5.10;4.80;;;;;;;;;;10454676;28;20221;-78
2022/09/30 11:31:46;;;;;;;4.53;4.23;;;;;;;;;;10420459;28;20661;-79
2022/09/30 11:36:56;;;;;;;5.13;4.63;;;;;;;;;;10458704;28;20216;-80
2022/09/30 11:42:02;;;;;;;6.40;6.00;;;;;;;;;;10428191;28;20197;-79
2022/09/30 11:47:15;;;;;;;6.60;6.00;;;;;;;;;;10464197;28;20251;-79
2022/09/30 11:52:21;;;;;;;7.33;6.73;;;;;;;;;;10466993;22;20209;-81
2022/09/30 11:57:28;;;;;;;6.33;5.93;;;;;;;;;;10466903;28;20288;-81
2022/09/30 12:02:36;;;;;;;5.90;5.50;;;;;;;;;;10469209;28;20271;-81
2022/09/30 12:07:41;;;;;;;5.80;5.40;;;;;;;;;;10460255;28;20197;-81
2022/09/30 12:12:45;;;;;;;6.17;5.67;;;;;;;;;;10463958;28;20213;-80
2022/09/30 12:17:50;;;;;;;6.10;5.70;;;;;;;;;;10464360;28;20726;-81
2022/09/30 12:22:54;;;;;;;5.30;4.90;;;;;;;;;;10464785;28;20208;-81
2022/09/30 12:27:59;;;;;;;5.10;4.80;;;;;;;;;;10465289;28;20204;-80
2022/09/30 12:33:21;;;;;;;5.70;5.40;;;;;;;;;;10471127;28;20297;-80
2022/09/30 12:38:31;;;;;;;6.20;5.67;;;;;;;;;;10473405;28;20229;-81
2022/09/30 12:43:49;;;;;;;7.23;5.70;;;;;;;;;;10472376;28;20253;-80
2022/09/30 12:48:55;;;;;;;4.80;4.60;;;;;;;;;;10466950;28;20200;-80
2022/09/30 12:54:02;;;;;;;5.97;5.57;;;;;;;;;;10449655;28;20592;-80
2022/09/30 12:59:05;;;;;;;4.77;4.37;;;;;;;;;;10467642;28;20235;-80
2022/09/30 13:04:16;;;;;;;5.30;4.80;;;;;;;;;;10466177;28;20213;-80
2022/09/30 13:09:20;;;;;;;5.20;4.80;;;;;;;;;;10468332;28;20911;-80
2022/09/30 13:14:24;;;;;;;5.67;5.10;;;;;;;;;;10465543;28;20558;-80
2022/09/30 13:19:35;;;;;;;4.40;4.17;;;;;;;;;;10464081;28;20217;-80
2022/09/30 13:24:56;;;;;;;6.70;3.80;;;;;;;;;;10463181;28;20634;-80
2022/09/30 13:29:58;;;;;;;5.33;5.03;;;;;;;;;;10469224;28;20200;-79
2022/09/30 13:35:02;;;;;;;4.43;4.07;;;;;;;;;;10468175;28;20627;-80
2022/09/30 13:40:06;;;;;;;3.97;3.40;;;;;;;;;;10470429;28;20217;-80
2022/09/30 13:45:15;;;;;;;5.10;4.80;;;;;;;;;;10464858;28;20216;-80
2022/09/30 13:50:20;;;;;;;4.77;4.57;;;;;;;;;;10445679;28;20683;-80
2022/09/30 13:55:25;;;;;;;5.00;4.60;;;;;;;;;;10460720;28;20604;-80
2022/09/30 14:00:33;;;;;;;4.40;4.20;;;;;;;;;;10462213;28;20217;-80
2022/09/30 14:05:42;;;;;;;5.33;5.03;;;;;;;;;;10441921;28;20271;-82
2022/09/30 14:10:53;;;;;;;4.60;4.30;;;;;;;;;;10443032;28;20260;-82
2022/09/30 14:16:12;;;;;;;9.93;4.77;;;;;;;;;;10459769;28;20213;-81
2022/09/30 14:21:27;;;;;;;4.90;4.60;;;;;;;;;;10460412;28;20704;-81
2022/09/30 14:26:45;;;;;;;5.63;5.23;;;;;;;;;;10458382;28;20235;-82
2022/09/30 14:31:48;;;;;;;6.07;5.67;;;;;;;;;;10461435;28;20280;-81
2022/09/30 14:36:53;;;;;;;4.13;3.83;;;;;;;;;;10457962;28;20216;-81
2022/09/30 14:41:57;;;;;;;7.10;6.60;;;;;;;;;;10458654;28;20213;-81
2022/09/30 14:47:01;;;;;;;5.37;4.97;;;;;;;;;;10440921;28;20945;-81
2022/09/30 14:52:06;;;;;;;5.30;5.00;;;;;;;;;;10442403;28;20193;-80
2022/09/30 14:57:16;;;;;;;4.97;4.57;;;;;;;;;;10458808;28;20197;-81
2022/09/30 15:02:20;;;;;;;5.40;5.20;;;;;;;;;;10443481;28;20245;-81
2022/09/30 15:07:24;;;;;;;4.70;4.40;;;;;;;;;;10459657;28;20197;-81
2022/09/30 15:12:27;;;;;;;6.00;5.60;;;;;;;;;;10440956;28;20217;-80
2022/09/30 15:17:30;;;;;;;6.30;5.80;;;;;;;;;;10458578;28;20224;-81
2022/09/30 15:22:34;;;;;;;10.57;6.03;;;;;;;;;;10457665;28;20209;-80
2022/09/30 15:27:37;;;;;;;5.83;5.43;;;;;;;;;;10457706;28;20190;-80
2022/09/30 15:32:40;;;;;;;6.67;6.27;;;;;;;;;;10456938;28;20213;-81
2022/09/30 15:37:44;;;;;;;6.03;5.73;;;;;;;;;;10467471;28;20772;-81
2022/09/30 15:42:53;;;;;;;5.80;5.40;;;;;;;;;;10475992;28;20235;-81
2022/09/30 15:47:57;;;;;;;6.20;5.73;;;;;;;;;;10476004;28;20185;-81
2022/09/30 15:53:05;;;;;;;6.67;6.17;;;;;;;;;;10455908;28;20855;-80
2022/09/30 15:58:22;;;;;;;4.43;4.13;;;;;;;;;;10468531;28;20209;-80
2022/09/30 16:03:26;;;;;;;5.93;5.53;;;;;;;;;;10466655;28;20239;-81
2022/09/30 16:08:32;;;;;;;5.37;4.97;;;;;;;;;;10463715;28;20193;-82
2022/09/30 16:13:36;;;;;;;6.13;5.73;;;;;;;;;;10464337;28;20209;-82
2022/09/30 16:18:44;;;;;;;6.57;6.07;;;;;;;;;;10462934;28;20205;-81
2022/09/30 16:23:47;;;;;;;5.80;5.50;;;;;;;;;;10460815;28;20217;-81
2022/09/30 16:28:50;;;;;;;7.93;7.40;;;;;;;;;;10464310;28;20266;-81
2022/09/30 16:33:55;;;;;;;6.90;6.33;;;;;;;;;;10443587;28;20270;-79
2022/09/30 16:38:59;;;;;;;6.67;6.07;;;;;;;;;;10455628;28;20922;-79
2022/09/30 16:44:02;;;;;;;6.93;6.33;;;;;;;;;;10458028;28;20638;-79
2022/09/30 16:49:11;;;;;;;6.67;6.20;;;;;;;;;;10440089;28;20979;-79
2022/09/30 16:54:15;;;;;;;6.00;5.60;;;;;;;;;;10460724;28;20217;-81
2022/09/30 16:59:20;;;;;;;4.83;4.43;;;;;;;;;;10461714;28;20279;-81
2022/09/30 17:04:26;;;;;;;7.07;6.47;;;;;;;;;;10449624;28;20236;-81
2022/09/30 17:09:29;;;;;;;6.70;6.20;;;;;;;;;;10448225;28;20731;-80
2022/09/30 17:14:32;;;;;;;6.70;6.30;;;;;;;;;;10455824;28;20296;-81
2022/09/30 17:19:35;;;;;;;7.47;6.90;;;;;;;;;;10441753;28;20213;-81
2022/09/30 17:24:39;;;;;;;8.13;7.43;;;;;;;;;;10443376;28;20221;-81
2022/09/30 17:29:41;;;;;;;12.00;10.90;;;;;;;;;;10460038;28;20550;-81
2022/09/30 17:34:43;;;;;;;7.90;7.40;;;;;;;;;;10462105;28;20217;-81
2022/09/30 17:39:47;;;;;;;6.70;6.27;;;;;;;;;;10459594;28;20210;-81
2022/09/30 17:44:50;;;;;;;10.40;9.30;;;;;;;;;;10443608;28;20216;-81
2022/09/30 17:49:52;;;;;;;7.40;6.90;;;;;;;;;;10461087;28;20196;-80
2022/09/30 17:54:56;;;;;;;24.93;20.53;;;;;;;;;;10473338;22;20319;-78
2022/09/30 17:59:58;;;;;;;26.73;18.17;;;;;;;;;;10459505;28;20276;-78
2022/09/30 18:05:00;;;;;;;8.83;8.20;;;;;;;;;;10442129;28;20217;-78
2022/09/30 18:10:04;;;;;;;10.20;8.83;;;;;;;;;;10459833;28;20300;-78
2022/09/30 18:15:08;;;;;;;9.20;8.50;;;;;;;;;;10459562;28;20588;-78
2022/09/30 18:20:11;;;;;;;9.90;9.10;;;;;;;;;;10461181;28;20633;-78
2022/09/30 18:25:21;;;;;;;10.10;9.30;;;;;;;;;;10439201;28;20279;-78
2022/09/30 18:30:24;;;;;;;12.33;11.30;;;;;;;;;;10422727;28;20190;-78
2022/09/30 18:35:29;;;;;;;46.60;38.70;;;;;;;;;;10455519;28;20362;-78
2022/09/30 18:40:33;;;;;;;10.30;9.53;;;;;;;;;;10456386;28;20247;-78
2022/09/30 18:45:37;;;;;;;10.07;9.23;;;;;;;;;;10457378;28;20225;-78
2022/09/30 18:50:39;;;;;;;9.17;8.47;;;;;;;;;;10455890;28;20633;-78
2022/09/30 18:55:43;;;;;;;8.70;7.87;;;;;;;;;;10456829;28;20221;-78
2022/09/30 19:00:45;;;;;;;11.63;8.30;;;;;;;;;;10439416;28;20620;-78
2022/09/30 19:05:48;;;;;;;8.70;8.00;;;;;;;;;;10438043;28;20304;-78
2022/09/30 19:10:53;;;;;;;11.60;9.63;;;;;;;;;;10438672;28;20271;-78
2022/09/30 19:15:55;;;;;;;9.63;8.60;;;;;;;;;;10429269;28;20560;-78
2022/09/30 19:21:03;;;;;;;8.03;7.47;;;;;;;;;;10464716;28;20291;-78
2022/09/30 19:26:07;;;;;;;9.20;8.40;;;;;;;;;;10430560;28;20213;-78
2022/09/30 19:31:11;;;;;;;9.40;8.60;;;;;;;;;;10444318;28;20193;-78
2022/09/30 19:36:14;;;;;;;7.90;7.30;;;;;;;;;;10460994;28;20224;-78
2022/09/30 19:41:18;;;;;;;8.97;8.17;;;;;;;;;;10444555;28;20242;-78
2022/09/30 19:46:20;;;;;;;8.43;7.83;;;;;;;;;;10462469;28;20220;-78
2022/09/30 19:51:23;;;;;;;10.53;9.63;;;;;;;;;;10462360;28;20727;-78
2022/09/30 19:56:26;;;;;;;11.00;10.17;;;;;;;;;;10462141;28;20250;-78
2022/09/30 20:01:29;;;;;;;11.53;10.33;;;;;;;;;;10445101;28;20335;-78
2022/09/30 20:06:32;;;;;;;10.20;9.33;;;;;;;;;;10443363;28;20696;-78
2022/09/30 20:11:37;;;;;;;13.10;11.90;;;;;;;;;;10443750;28;20197;-78
2022/09/30 20:16:39;;;;;;;12.50;10.70;;;;;;;;;;10460579;28;20218;-78
2022/09/30 20:21:42;;;;;;;12.27;11.17;;;;;;;;;;10443280;28;20589;-78
2022/09/30 20:26:46;;;;;;;16.57;13.77;;;;;;;;;;10461512;28;20736;-78
2022/09/30 20:31:49;;;;;;;14.27;12.77;;;;;;;;;;10461385;28;20637;-78
2022/09/30 20:36:51;;;;;;;10.80;9.90;;;;;;;;;;10461671;28;20232;-78
2022/09/30 20:41:57;;;;;;;10.37;9.40;;;;;;;;;;10443979;28;20267;-77
2022/09/30 20:47:00;;;;;;;10.17;9.20;;;;;;;;;;10462150;28;20218;-78
2022/09/30 20:52:04;;;;;;;8.93;8.13;;;;;;;;;;10443139;28;20217;-78
2022/09/30 20:57:08;;;;;;;8.63;7.83;;;;;;;;;;10428002;28;20221;-78
2022/09/30 21:02:12;;;;;;;9.13;8.07;;;;;;;;;;10462383;28;20312;-78
2022/09/30 21:07:15;;;;;;;8.03;7.43;;;;;;;;;;10461556;28;20315;-78
2022/09/30 21:12:18;;;;;;;8.80;8.10;;;;;;;;;;10458782;28;20206;-78
2022/09/30 21:17:21;;;;;;;12.63;8.23;;;;;;;;;;10463755;28;20209;-78
2022/09/30 21:22:23;;;;;;;8.27;7.47;;;;;;;;;;10440708;28;20320;-78
2022/09/30 21:27:27;;;;;;;8.27;7.47;;;;;;;;;;10458777;28;20317;-78
2022/09/30 21:32:29;;;;;;;9.30;8.50;;;;;;;;;;10440243;28;20618;-78
2022/09/30 21:37:32;;;;;;;10.10;9.10;;;;;;;;;;10457464;28;20205;-78
2022/09/30 21:42:36;;;;;;;10.17;8.97;;;;;;;;;;10438258;28;20231;-78
2022/09/30 21:47:39;;;;;;;8.83;7.90;;;;;;;;;;10456270;28;20626;-77
2022/09/30 21:52:41;;;;;;;11.13;7.90;;;;;;;;;;10457468;28;20193;-78
2022/09/30 21:57:46;;;;;;;9.03;7.77;;;;;;;;;;10453778;28;20207;-78
2022/09/30 22:02:48;;;;;;;8.63;7.83;;;;;;;;;;10433117;28;20716;-78
2022/09/30 22:07:51;;;;;;;8.97;8.27;;;;;;;;;;10438231;28;20231;-79
2022/09/30 22:12:55;;;;;;;9.30;8.50;;;;;;;;;;10455763;28;20213;-78
2022/09/30 22:17:57;;;;;;;8.77;7.87;;;;;;;;;;10422164;28;20262;-78
2022/09/30 22:22:59;;;;;;;8.47;7.77;;;;;;;;;;10437175;28;20224;-78
2022/09/30 22:28:04;;;;;;;6.70;6.27;;;;;;;;;;10455587;28;20649;-78
2022/09/30 22:38:26;;;;;;;6.70;6.30;;;;;;;;;;10441586;28;20223;-78
2022/09/30 22:43:32;;;;;;;7.10;6.60;;;;;;;;;;10432449;28;20224;-78
2022/09/30 22:48:35;;;;;;;6.57;6.07;;;;;;;;;;10461524;28;20220;-77
2022/09/30 22:53:38;;;;;;;7.23;6.73;;;;;;;;;;10455725;28;20221;-79
2022/09/30 22:58:41;;;;;;;6.83;6.23;;;;;;;;;;10438734;28;20576;-79
2022/09/30 23:03:44;;;;;;;6.30;5.80;;;;;;;;;;10439711;28;20224;-79
2022/09/30 23:08:46;;;;;;;6.17;5.77;;;;;;;;;;10458653;28;20629;-78
2022/09/30 23:13:52;;;;;;;6.63;6.13;;;;;;;;;;10460085;28;20220;-79
2022/09/30 23:18:54;;;;;;;6.10;5.70;;;;;;;;;;10446836;28;20573;-79
2022/09/30 23:23:57;;;;;;;8.00;7.33;;;;;;;;;;10457535;28;20216;-78
2022/09/30 23:29:01;;;;;;;8.43;7.73;;;;;;;;;;10457411;28;20220;-79
2022/09/30 23:34:04;;;;;;;5.97;5.50;;;;;;;;;;10439353;28;20233;-77
2022/09/30 23:39:08;;;;;;;6.00;5.60;;;;;;;;;;10457855;28;20568;-78
2022/09/30 23:44:11;;;;;;;7.50;6.90;;;;;;;;;;10442590;28;20213;-77
2022/09/30 23:49:14;;;;;;;6.87;6.40;;;;;;;;;;10439609;28;20197;-78
2022/09/30 23:54:16;;;;;;;7.67;6.93;;;;;;;;;;10453891;28;20221;-78
2022/09/30 23:59:20;;;;;;;7.17;6.67;;;;;;;;;;10454396;28;20219;-78
